Time;durP1;ratioP1;P1;durP2;ratioP2;P2;SDS_P1;SDS_P2;PMS_P1;PMS_P2;Temp;Humidity;BMP_temperature;BMP_pressure;BME280_temperature;BME280_humidity;BME280_pressure;Samples;Min_cycle;Max_cycle;Signal;HPM_P1;HPM_P2
2023/03/03 00:00:46;;;;;;;8.40;3.53;;;5.70;99.90;;;;;;5029398;28;20267;-59
2023/03/03 00:03:16;;;;;;;7.80;2.87;;;6.40;99.90;;;;;;5028899;28;20162;-58
2023/03/03 00:05:41;;;;;;;6.37;3.47;;;5.80;99.90;;;;;;5029162;28;20169;-58
2023/03/03 00:08:08;;;;;;;6.57;3.10;;;5.70;99.90;;;;;;5023060;28;20217;-57
2023/03/03 00:10:33;;;;;;;5.87;2.93;;;5.70;99.90;;;;;;5029101;28;20700;-58
2023/03/03 00:12:59;;;;;;;5.97;3.37;;;5.70;99.90;;;;;;5028781;28;20273;-58
2023/03/03 00:15:27;;;;;;;7.93;3.53;;;5.70;99.90;;;;;;5029910;28;20181;-58
2023/03/03 00:17:53;;;;;;;8.13;3.70;;;5.70;99.90;;;;;;5030449;28;20180;-57
2023/03/03 00:20:29;;;;;;;8.80;3.20;;;5.80;99.90;;;;;;5021189;28;20178;-57
2023/03/03 00:22:55;;;;;;;6.37;2.83;;;5.80;99.90;;;;;;5028285;28;20662;-58
2023/03/03 00:25:29;;;;;;;10.87;3.07;;;5.80;99.90;;;;;;5014487;28;20218;-58
2023/03/03 00:27:55;;;;;;;6.70;2.30;;;5.70;99.90;;;;;;5029093;28;20214;-58
2023/03/03 00:30:26;;;;;;;10.30;2.53;;;5.60;99.90;;;;;;5029419;28;20598;-58
2023/03/03 00:32:54;;;;;;;8.13;2.33;;;5.50;99.90;;;;;;5028968;28;20181;-58
2023/03/03 00:35:34;;;;;;;6.40;2.17;;;5.40;99.90;;;;;;5028596;28;20212;-58
2023/03/03 00:38:09;;;;;;;4.53;1.90;;;5.50;99.90;;;;;;5028573;28;20248;-58
2023/03/03 00:40:39;;;;;;;6.37;1.93;;;5.40;99.90;;;;;;5013712;28;20204;-58
2023/03/03 00:43:22;;;;;;;10.40;2.20;;;5.40;99.90;;;;;;5029088;28;20539;-58
2023/03/03 00:45:49;;;;;;;4.77;1.83;;;5.30;99.90;;;;;;5028907;28;20212;-58
2023/03/03 00:48:28;;;;;;;4.23;1.90;;;5.30;99.90;;;;;;4991783;28;20701;-58
2023/03/03 00:50:56;;;;;;;4.83;1.87;;;5.20;99.90;;;;;;5019311;28;20264;-58
2023/03/03 00:53:24;;;;;;;8.13;1.90;;;5.20;99.90;;;;;;5029119;28;20633;-57
2023/03/03 00:55:51;;;;;;;4.53;2.13;;;5.10;99.90;;;;;;5029244;28;20181;-60
2023/03/03 00:58:20;;;;;;;4.33;1.80;;;5.10;99.90;;;;;;5028598;28;20211;-59
2023/03/03 01:00:49;;;;;;;3.90;1.93;;;5.10;99.90;;;;;;5028669;28;20174;-59
2023/03/03 01:03:19;;;;;;;9.30;1.90;;;5.10;99.90;;;;;;5022260;28;20793;-59
2023/03/03 01:05:45;;;;;;;7.17;1.63;;;5.20;99.90;;;;;;5008030;28;20205;-60
2023/03/03 01:08:11;;;;;;;5.47;2.13;;;5.70;99.90;;;;;;5008231;28;20336;-59
2023/03/03 01:10:41;;;;;;;4.03;1.73;;;5.10;99.90;;;;;;5009373;28;20612;-59
2023/03/03 01:13:07;;;;;;;4.87;1.80;;;5.00;99.90;;;;;;5009613;28;20535;-59
2023/03/03 01:15:34;;;;;;;4.13;1.90;;;5.20;99.90;;;;;;5012736;28;20213;-59
2023/03/03 01:17:59;;;;;;;5.20;2.03;;;5.10;99.90;;;;;;5032422;28;20170;-56
2023/03/03 01:20:25;;;;;;;5.43;2.20;;;5.10;99.90;;;;;;5014961;28;20193;-59
2023/03/03 01:22:51;;;;;;;3.63;1.83;;;5.70;99.90;;;;;;5012836;28;20174;-58
2023/03/03 01:25:16;;;;;;;5.80;2.13;;;5.10;99.90;;;;;;5013369;28;20646;-59
2023/03/03 01:27:42;;;;;;;4.80;2.30;;;5.10;99.90;;;;;;5013224;28;20206;-58
2023/03/03 01:30:08;;;;;;;7.63;2.30;;;5.10;99.90;;;;;;5015830;28;20189;-58
2023/03/03 01:32:34;;;;;;;7.83;2.27;;;5.10;99.90;;;;;;5032311;28;20231;-58
2023/03/03 01:35:00;;;;;;;10.37;2.53;;;5.00;99.90;;;;;;5019911;28;20182;-58
2023/03/03 01:37:26;;;;;;;10.57;2.30;;;5.00;99.90;;;;;;5031530;28;20240;-58
2023/03/03 01:39:55;;;;;;;4.10;1.90;;;5.00;99.90;;;;;;5026272;28;20198;-58
2023/03/03 01:42:20;;;;;;;4.87;2.10;;;5.00;99.90;;;;;;5011842;28;20279;-58
2023/03/03 01:44:46;;;;;;;9.17;2.67;;;5.10;99.90;;;;;;5019148;28;20731;-58
2023/03/03 01:47:17;;;;;;;7.73;2.43;;;5.10;99.90;;;;;;5032185;28;20264;-58
2023/03/03 01:49:53;;;;;;;4.27;2.40;;;5.10;99.90;;;;;;5032504;28;20261;-58
2023/03/03 01:52:41;;;;;;;4.13;2.43;;;5.10;99.90;;;;;;5032301;28;20269;-58
2023/03/03 01:55:31;;;;;;;4.07;2.37;;;5.10;99.90;;;;;;5032241;28;20522;-58
2023/03/03 01:58:14;;;;;;;4.67;2.33;;;5.30;99.90;;;;;;5012513;28;20244;-56
2023/03/03 02:00:45;;;;;;;7.57;2.50;;;5.20;99.90;;;;;;5018340;28;20265;-58
2023/03/03 02:03:10;;;;;;;4.67;2.27;;;5.20;99.90;;;;;;5012326;28;20320;-58
2023/03/03 02:05:39;;;;;;;6.80;2.40;;;5.20;99.90;;;;;;5031028;28;20235;-58
2023/03/03 02:08:09;;;;;;;4.97;2.63;;;5.30;99.90;;;;;;5024483;28;20214;-57
2023/03/03 02:10:35;;;;;;;14.90;2.40;;;5.40;99.90;;;;;;5023322;28;20185;-59
2023/03/03 02:13:00;;;;;;;6.10;2.40;;;5.40;99.90;;;;;;5031873;28;20189;-57
2023/03/03 02:15:31;;;;;;;7.13;2.43;;;5.40;99.90;;;;;;5032171;28;20199;-56
2023/03/03 02:18:00;;;;;;;6.57;2.23;;;5.50;99.90;;;;;;5011582;28;20231;-57
2023/03/03 02:20:44;;;;;;;4.40;2.03;;;5.50;99.90;;;;;;5012251;28;20171;-59
2023/03/03 02:23:36;;;;;;;3.37;2.03;;;5.50;99.90;;;;;;5012455;28;20181;-59
2023/03/03 02:26:08;;;;;;;7.97;1.93;;;5.50;99.90;;;;;;5011600;28;20202;-58
2023/03/03 02:28:36;;;;;;;3.97;2.00;;;5.70;99.90;;;;;;5012233;28;20203;-58
2023/03/03 02:31:05;;;;;;;5.50;1.97;;;5.50;99.90;;;;;;5031117;28;20201;-57
2023/03/03 02:33:31;;;;;;;4.60;1.97;;;5.60;99.90;;;;;;5031019;28;20248;-57
2023/03/03 02:35:56;;;;;;;2.80;1.83;;;5.50;99.90;;;;;;5030388;28;20232;-60
2023/03/03 02:38:45;;;;;;;4.20;2.00;;;5.50;99.90;;;;;;5031015;28;20585;-57
2023/03/03 02:41:15;;;;;;;4.10;1.80;;;5.60;99.90;;;;;;5030895;28;20181;-57
2023/03/03 02:44:17;;;;;;;4.37;1.70;;;5.60;99.90;;;;;;5030810;28;20316;-57
2023/03/03 02:46:45;;;;;;;7.10;1.70;;;5.60;99.90;;;;;;5009369;28;20240;-60
2023/03/03 02:49:17;;;;;;;6.97;1.83;;;5.60;99.90;;;;;;5029856;28;20190;-59
2023/03/03 02:51:43;;;;;;;6.47;1.60;;;5.60;99.90;;;;;;5027943;28;20205;-59
2023/03/03 02:54:11;;;;;;;5.00;2.10;;;5.60;99.90;;;;;;5040217;28;20573;-58
2023/03/03 02:56:37;;;;;;;8.17;2.10;;;5.60;99.90;;;;;;5031426;28;20259;-58
2023/03/03 02:59:03;;;;;;;4.07;1.70;;;5.70;99.90;;;;;;5030956;28;20260;-57
2023/03/03 03:01:30;;;;;;;4.70;1.70;;;5.60;99.90;;;;;;5012164;28;20269;-58
2023/03/03 03:03:57;;;;;;;3.20;1.60;;;5.60;99.90;;;;;;5030048;28;20188;-58
2023/03/03 03:06:23;;;;;;;7.43;1.90;;;7.90;99.90;;;;;;5030497;28;20329;-58
2023/03/03 03:08:49;;;;;;;3.50;1.60;;;5.60;99.90;;;;;;5030154;28;20260;-58
2023/03/03 03:11:14;;;;;;;2.23;1.60;;;5.70;99.90;;;;;;5030151;28;20185;-59
2023/03/03 03:13:40;;;;;;;6.00;1.87;;;5.30;99.90;;;;;;5030722;28;20308;-58
2023/03/03 03:16:06;;;;;;;4.93;1.77;;;5.70;99.90;;;;;;5031026;28;20181;-58
2023/03/03 03:18:31;;;;;;;5.70;1.73;;;5.70;99.90;;;;;;5029913;28;20184;-59
2023/03/03 03:21:05;;;;;;;2.60;1.50;;;5.80;99.90;;;;;;5030261;28;20601;-58
2023/03/03 03:23:30;;;;;;;3.83;1.73;;;5.70;99.90;;;;;;5010847;28;20325;-56
2023/03/03 03:25:56;;;;;;;8.30;1.90;;;5.80;99.90;;;;;;5011430;28;20186;-56
2023/03/03 03:28:22;;;;;;;3.90;1.70;;;5.70;99.90;;;;;;5022326;28;20261;-56
2023/03/03 03:30:50;;;;;;;4.13;1.90;;;5.70;99.90;;;;;;5030218;28;20182;-57
2023/03/03 03:33:16;;;;;;;3.73;2.07;;;5.60;99.90;;;;;;5030023;28;20181;-57
2023/03/03 03:35:44;;;;;;;5.10;1.97;;;5.60;99.90;;;;;;5025496;28;20179;-58
2023/03/03 03:38:10;;;;;;;4.93;2.10;;;5.70;99.90;;;;;;5026562;28;20231;-60
2023/03/03 03:40:36;;;;;;;4.70;2.20;;;5.70;99.90;;;;;;5025474;28;20182;-59
2023/03/03 03:43:02;;;;;;;8.97;2.40;;;5.70;99.90;;;;;;5020828;28;20724;-59
2023/03/03 03:45:27;;;;;;;4.93;2.20;;;5.80;99.90;;;;;;5020299;28;20183;-59
2023/03/03 03:47:53;;;;;;;4.73;2.70;;;5.80;99.90;;;;;;5010318;28;20279;-59
2023/03/03 03:50:18;;;;;;;5.67;2.30;;;5.70;99.90;;;;;;5025560;28;20205;-59
2023/03/03 03:52:44;;;;;;;5.00;2.40;;;5.70;99.90;;;;;;5029659;28;20636;-57
2023/03/03 03:55:10;;;;;;;5.83;2.67;;;5.80;99.90;;;;;;5038925;28;20249;-57
2023/03/03 03:57:35;;;;;;;4.93;2.70;;;5.80;99.90;;;;;;5041015;28;20700;-57
2023/03/03 04:00:01;;;;;;;6.17;2.60;;;5.80;99.90;;;;;;5014891;28;20688;-60
2023/03/03 04:02:26;;;;;;;3.93;2.30;;;5.80;99.90;;;;;;5026785;28;20182;-59
2023/03/03 04:04:52;;;;;;;4.67;2.43;;;5.70;99.90;;;;;;5026023;28;20186;-59
2023/03/03 04:07:18;;;;;;;5.07;2.30;;;5.80;99.90;;;;;;5022790;28;20712;-60
2023/03/03 04:09:43;;;;;;;7.20;2.70;;;5.80;99.90;;;;;;5027786;28;20228;-59
2023/03/03 04:12:09;;;;;;;5.67;2.30;;;5.90;99.90;;;;;;5022745;28;20182;-59
2023/03/03 04:14:35;;;;;;;4.53;2.50;;;7.00;99.90;;;;;;5016591;28;20185;-59
2023/03/03 04:17:00;;;;;;;5.03;2.50;;;5.70;99.90;;;;;;5026435;28;20177;-57
2023/03/03 04:19:26;;;;;;;8.07;2.50;;;5.80;99.90;;;;;;5028630;28;20170;-57
2023/03/03 04:21:52;;;;;;;7.20;2.40;;;5.80;99.90;;;;;;5022243;28;20398;-57
2023/03/03 04:24:18;;;;;;;6.00;2.40;;;5.80;99.90;;;;;;5013516;28;20700;-58
2023/03/03 04:26:44;;;;;;;4.57;2.23;;;5.80;99.90;;;;;;5028126;28;20212;-58
2023/03/03 04:29:09;;;;;;;6.53;2.13;;;5.70;99.90;;;;;;5028651;28;20268;-58
2023/03/03 04:31:35;;;;;;;5.53;2.40;;;5.70;99.90;;;;;;5028657;28;20268;-58
2023/03/03 04:34:01;;;;;;;4.17;1.77;;;5.80;99.90;;;;;;5017389;28;20265;-58
2023/03/03 04:36:26;;;;;;;4.23;1.87;;;5.70;99.90;;;;;;5029338;28;20822;-58
2023/03/03 04:38:52;;;;;;;6.43;1.90;;;5.80;99.90;;;;;;5029362;28;20744;-58
2023/03/03 04:41:18;;;;;;;4.77;2.03;;;5.80;99.90;;;;;;5028174;28;20174;-58
2023/03/03 04:43:43;;;;;;;4.37;1.97;;;5.80;99.90;;;;;;5027160;28;20284;-57
2023/03/03 04:46:09;;;;;;;5.73;2.33;;;5.80;99.90;;;;;;5025205;28;20641;-57
2023/03/03 04:48:34;;;;;;;2.97;1.80;;;5.80;99.90;;;;;;5020684;28;20300;-57
2023/03/03 04:51:00;;;;;;;2.80;1.67;;;5.70;99.90;;;;;;5019378;28;20642;-57
2023/03/03 04:53:26;;;;;;;2.90;1.70;;;5.80;99.90;;;;;;5025488;28;20244;-58
2023/03/03 04:55:55;;;;;;;2.17;1.40;;;5.80;99.90;;;;;;5024697;28;20173;-58
2023/03/03 04:58:21;;;;;;;2.90;1.93;;;5.90;99.90;;;;;;5032383;28;20272;-58
2023/03/03 05:00:52;;;;;;;7.90;2.20;;;5.80;99.90;;;;;;5033400;28;20197;-58
2023/03/03 05:03:18;;;;;;;3.07;1.67;;;5.70;99.90;;;;;;5033022;28;20185;-58
2023/03/03 05:05:45;;;;;;;3.87;1.80;;;5.70;99.90;;;;;;5033859;28;20169;-57
2023/03/03 05:08:11;;;;;;;4.43;1.70;;;5.70;99.90;;;;;;5032621;28;20220;-58
2023/03/03 05:10:37;;;;;;;4.33;1.90;;;5.70;99.90;;;;;;5032660;28;20186;-58
2023/03/03 05:13:03;;;;;;;4.57;2.10;;;5.70;99.90;;;;;;5032364;28;20177;-58
2023/03/03 05:15:29;;;;;;;5.47;2.13;;;5.70;99.90;;;;;;5032576;28;20173;-58
2023/03/03 05:17:55;;;;;;;4.60;1.97;;;5.70;99.90;;;;;;5032736;28;20193;-58
2023/03/03 05:20:21;;;;;;;4.60;2.17;;;5.70;99.90;;;;;;5032295;28;20174;-58
2023/03/03 05:22:47;;;;;;;3.43;2.00;;;5.70;99.90;;;;;;5032436;28;20201;-58
2023/03/03 05:25:13;;;;;;;3.63;2.00;;;7.10;99.90;;;;;;5032602;28;20178;-58
2023/03/03 05:27:38;;;;;;;3.07;2.00;;;5.80;99.90;;;;;;5032529;28;20679;-58
2023/03/03 05:30:04;;;;;;;4.30;1.80;;;5.80;99.90;;;;;;5032888;28;20203;-56
2023/03/03 05:32:31;;;;;;;3.50;1.73;;;5.80;99.90;;;;;;5032866;28;20239;-58
2023/03/03 05:34:56;;;;;;;8.53;2.30;;;5.80;99.90;;;;;;5014010;28;20192;-58
2023/03/03 05:37:23;;;;;;;3.33;1.87;;;5.80;99.90;;;;;;5008222;28;20201;-58
2023/03/03 05:39:49;;;;;;;5.37;1.97;;;5.90;99.90;;;;;;5032082;28;20617;-58
2023/03/03 05:42:14;;;;;;;7.30;2.00;;;5.80;99.90;;;;;;5031385;28;20221;-58
2023/03/03 05:44:40;;;;;;;1.87;1.60;;;5.80;99.90;;;;;;5032439;28;20174;-58
2023/03/03 05:47:06;;;;;;;4.77;1.87;;;6.00;99.90;;;;;;5031190;28;20198;-58
2023/03/03 05:49:32;;;;;;;3.57;2.00;;;5.70;99.90;;;;;;5032564;28;20162;-58
2023/03/03 05:51:58;;;;;;;8.07;2.40;;;5.70;99.90;;;;;;5031914;28;20174;-58
2023/03/03 05:54:23;;;;;;;4.80;2.00;;;5.80;99.90;;;;;;5031217;28;20640;-58
2023/03/03 05:56:49;;;;;;;6.60;1.87;;;5.70;99.90;;;;;;5030630;28;20338;-59
2023/03/03 05:59:15;;;;;;;4.00;1.90;;;5.70;99.90;;;;;;5031495;28;20177;-59
2023/03/03 06:01:40;;;;;;;4.87;1.80;;;5.70;99.90;;;;;;5030374;28;20179;-59
2023/03/03 06:04:07;;;;;;;2.23;1.30;;;5.70;99.90;;;;;;5033851;28;20583;-59
2023/03/03 06:06:33;;;;;;;3.93;1.70;;;5.70;99.90;;;;;;5021979;28;20189;-57
2023/03/03 06:08:58;;;;;;;4.23;1.80;;;5.70;99.90;;;;;;5031209;28;20166;-57
2023/03/03 06:11:24;;;;;;;4.10;1.87;;;5.70;99.90;;;;;;5031579;28;20648;-57
2023/03/03 06:13:50;;;;;;;5.83;1.57;;;5.70;99.90;;;;;;5031023;28;20184;-57
2023/03/03 06:16:16;;;;;;;2.77;1.70;;;5.70;99.90;;;;;;5014099;28;20190;-57
2023/03/03 06:18:41;;;;;;;5.33;1.70;;;5.70;99.90;;;;;;5031936;28;20265;-57
2023/03/03 06:21:07;;;;;;;3.77;1.73;;;5.60;99.90;;;;;;5032348;28;20174;-57
2023/03/03 06:23:32;;;;;;;3.50;1.40;;;5.60;99.90;;;;;;5031217;28;20739;-57
2023/03/03 06:25:58;;;;;;;2.53;1.60;;;5.70;99.90;;;;;;5030629;28;20188;-57
2023/03/03 06:28:24;;;;;;;3.20;1.60;;;5.60;99.90;;;;;;5031100;28;20722;-57
2023/03/03 06:30:56;;;;;;;4.27;1.60;;;5.60;99.90;;;;;;5030845;28;20174;-57
2023/03/03 06:33:22;;;;;;;6.07;1.80;;;5.60;99.90;;;;;;5025712;28;20197;-57
2023/03/03 06:35:51;;;;;;;6.07;1.70;;;5.60;99.90;;;;;;5030469;28;20188;-58
2023/03/03 06:38:17;;;;;;;6.17;1.87;;;5.60;99.90;;;;;;5028691;28;20178;-57
2023/03/03 06:40:44;;;;;;;2.70;1.30;;;5.50;99.90;;;;;;5028602;28;20169;-57
2023/03/03 06:43:10;;;;;;;3.90;1.50;;;5.60;99.90;;;;;;5031020;28;20170;-57
2023/03/03 06:45:36;;;;;;;2.57;1.43;;;5.60;99.90;;;;;;5031386;28;20554;-58
2023/03/03 06:48:01;;;;;;;5.07;1.30;;;5.70;99.90;;;;;;5011548;28;20241;-58
2023/03/03 06:50:27;;;;;;;4.13;1.70;;;5.80;99.90;;;;;;5031220;28;20170;-58
2023/03/03 06:53:14;;;;;;;3.60;1.20;;;5.70;99.90;;;;;;5030393;28;20178;-57
2023/03/03 06:55:39;;;;;;;4.87;1.57;;;5.70;99.90;;;;;;5031296;28;20185;-57
2023/03/03 06:58:17;;;;;;;6.47;1.60;;;5.50;99.90;;;;;;5027902;28;20225;-57
2023/03/03 07:00:45;;;;;;;6.20;1.70;;;5.60;99.90;;;;;;5019102;28;20181;-57
2023/03/03 07:03:16;;;;;;;9.83;1.70;;;5.60;99.90;;;;;;5030872;28;20193;-57
2023/03/03 07:05:42;;;;;;;4.23;1.70;;;5.60;99.90;;;;;;5030828;28;20256;-57
2023/03/03 07:08:15;;;;;;;3.07;1.67;;;5.60;99.90;;;;;;5030654;28;20289;-57
2023/03/03 07:10:42;;;;;;;3.00;1.90;;;5.60;99.90;;;;;;5029593;28;20197;-57
2023/03/03 07:13:23;;;;;;;2.50;1.70;;;5.60;99.90;;;;;;5028686;28;20190;-57
2023/03/03 07:15:51;;;;;;;3.13;1.83;;;5.50;99.90;;;;;;5012075;28;20335;-57
2023/03/03 07:18:41;;;;;;;4.80;2.00;;;5.50;99.90;;;;;;5029636;28;20182;-60
2023/03/03 07:21:40;;;;;;;11.27;2.40;;;5.50;99.90;;;;;;5012514;28;20268;-57
2023/03/03 07:24:17;;;;;;;2.67;2.10;;;5.40;99.90;;;;;;4980258;28;20184;-57
2023/03/03 07:26:43;;;;;;;5.17;2.00;;;5.40;99.90;;;;;;5029331;28;20189;-57
2023/03/03 07:29:27;;;;;;;5.97;2.03;;;5.50;99.90;;;;;;5033196;28;20227;-56
2023/03/03 07:31:55;;;;;;;6.03;1.80;;;5.40;99.90;;;;;;5026796;28;20525;-56
2023/03/03 07:34:26;;;;;;;4.43;1.80;;;5.50;99.90;;;;;;5030338;28;20220;-56
2023/03/03 07:36:59;;;;;;;2.90;2.20;;;5.50;99.90;;;;;;5030026;28;20181;-56
2023/03/03 07:39:46;;;;;;;5.50;2.20;;;5.60;99.90;;;;;;5030272;28;20284;-56
2023/03/03 07:42:22;;;;;;;8.63;2.00;;;5.60;99.90;;;;;;5011247;28;20167;-56
2023/03/03 07:44:54;;;;;;;3.67;1.97;;;5.60;99.90;;;;;;5026346;28;20232;-59
2023/03/03 07:47:25;;;;;;;7.70;2.00;;;5.60;99.90;;;;;;5029773;28;20244;-56
2023/03/03 07:49:56;;;;;;;7.63;2.37;;;5.60;99.90;;;;;;5029925;28;20178;-56
2023/03/03 07:52:30;;;;;;;6.57;2.23;;;5.70;99.90;;;;;;5030219;28;20174;-56
2023/03/03 07:54:59;;;;;;;9.27;2.33;;;5.60;99.90;;;;;;5017107;28;20217;-56
2023/03/03 07:57:38;;;;;;;6.23;2.07;;;5.60;99.90;;;;;;5025007;28;20245;-57
2023/03/03 08:00:29;;;;;;;10.50;2.23;;;5.70;99.90;;;;;;5028401;28;20188;-56
2023/03/03 08:03:16;;;;;;;5.13;2.20;;;5.60;99.90;;;;;;5024438;28;20272;-56
2023/03/03 08:05:45;;;;;;;3.97;2.23;;;5.70;99.90;;;;;;5010769;28;20528;-56
2023/03/03 08:08:15;;;;;;;3.67;1.90;;;5.80;99.90;;;;;;5017572;28;20202;-56
2023/03/03 08:10:54;;;;;;;4.50;2.10;;;6.80;99.90;;;;;;5029187;28;20177;-56
2023/03/03 08:13:22;;;;;;;15.10;2.27;;;5.90;99.90;;;;;;5030288;28;20184;-56
2023/03/03 08:16:09;;;;;;;7.23;2.20;;;6.00;99.90;;;;;;5029610;28;20779;-56
2023/03/03 08:18:40;;;;;;;9.83;2.30;;;5.90;99.90;;;;;;5012586;28;20194;-56
2023/03/03 08:21:06;;;;;;;3.80;2.03;;;6.00;99.90;;;;;;5030283;28;20178;-57
2023/03/03 08:23:32;;;;;;;5.27;1.90;;;5.90;99.90;;;;;;5029466;28;20302;-56
2023/03/03 08:25:57;;;;;;;6.60;1.73;;;6.00;99.90;;;;;;5027829;28;20601;-57
2023/03/03 08:28:23;;;;;;;5.30;2.00;;;5.90;99.90;;;;;;5024407;28;20650;-56
2023/03/03 08:30:49;;;;;;;5.43;2.33;;;6.00;99.90;;;;;;5029791;28;20220;-56
2023/03/03 08:33:16;;;;;;;8.30;2.43;;;6.10;99.90;;;;;;5028623;28;20182;-57
2023/03/03 08:35:42;;;;;;;4.40;1.97;;;6.00;99.90;;;;;;5029751;28;20641;-56
2023/03/03 08:38:09;;;;;;;6.37;2.30;;;6.00;99.90;;;;;;5029007;28;20326;-56
2023/03/03 08:40:35;;;;;;;3.83;2.20;;;6.00;99.90;;;;;;5029310;28;20182;-57
2023/03/03 08:43:01;;;;;;;4.13;1.60;;;6.00;99.90;;;;;;5029201;28;20189;-57
2023/03/03 08:45:27;;;;;;;4.47;2.10;;;6.00;99.90;;;;;;5029230;28;20182;-57
2023/03/03 08:47:58;;;;;;;3.77;1.70;;;6.00;99.90;;;;;;5029244;28;20293;-57
2023/03/03 08:50:25;;;;;;;4.93;1.90;;;6.10;99.90;;;;;;5029151;28;20324;-56
2023/03/03 08:52:50;;;;;;;3.60;1.97;;;6.10;99.90;;;;;;5028253;28;20174;-57
2023/03/03 08:55:16;;;;;;;5.47;2.17;;;6.10;99.90;;;;;;5029059;28;20667;-57
2023/03/03 08:57:42;;;;;;;8.40;2.17;;;6.10;99.90;;;;;;5028610;28;20209;-57
2023/03/03 09:00:11;;;;;;;4.57;2.50;;;6.20;99.90;;;;;;5028596;28;20279;-57
2023/03/03 09:02:37;;;;;;;4.53;2.10;;;6.20;99.90;;;;;;5029496;28;20224;-57
2023/03/03 09:05:03;;;;;;;3.93;2.00;;;6.30;99.90;;;;;;5028285;28;20643;-57
2023/03/03 09:07:29;;;;;;;4.67;2.27;;;6.40;99.90;;;;;;5027040;28;20289;-56
2023/03/03 09:09:54;;;;;;;4.33;2.17;;;6.40;99.90;;;;;;5027778;28;20265;-56
2023/03/03 09:12:38;;;;;;;3.33;2.10;;;6.40;99.90;;;;;;5029889;28;20263;-56
2023/03/03 09:15:30;;;;;;;2.80;1.90;;;6.60;99.90;;;;;;5029261;28;20170;-56
2023/03/03 09:18:07;;;;;;;6.13;2.23;;;6.60;99.90;;;;;;5021449;28;20633;-56
2023/03/03 09:20:33;;;;;;;5.70;2.30;;;6.60;99.90;;;;;;5029751;28;20166;-57
2023/03/03 09:23:19;;;;;;;3.87;2.40;;;6.80;99.90;;;;;;5029791;28;20174;-56
2023/03/03 09:25:45;;;;;;;4.83;2.20;;;6.70;99.90;;;;;;5029611;28;20713;-59
2023/03/03 09:28:31;;;;;;;3.50;2.00;;;6.80;99.90;;;;;;5029561;28;20296;-57
2023/03/03 09:31:02;;;;;;;7.67;2.43;;;6.90;99.90;;;;;;5029279;28;20174;-56
2023/03/03 09:33:46;;;;;;;6.47;2.30;;;6.90;99.90;;;;;;5028982;28;20288;-56
2023/03/03 09:36:23;;;;;;;6.30;2.40;;;6.90;99.90;;;;;;5029644;28;20178;-57
2023/03/03 09:38:49;;;;;;;7.73;2.47;;;7.00;99.90;;;;;;5032452;28;20227;-57
2023/03/03 09:41:27;;;;;;;6.37;2.40;;;6.90;99.90;;;;;;5015449;28;20606;-57
2023/03/03 09:43:56;;;;;;;4.80;2.50;;;6.90;99.90;;;;;;5032528;28;20177;-57
2023/03/03 09:46:47;;;;;;;4.70;2.40;;;7.00;99.90;;;;;;5033256;28;20235;-57
2023/03/03 09:49:33;;;;;;;5.30;2.13;;;7.00;99.90;;;;;;5033103;28;20186;-57
2023/03/03 09:52:18;;;;;;;7.13;2.00;;;7.00;99.90;;;;;;5033129;28;20162;-57
2023/03/03 09:55:21;;;;;;;2.63;1.90;;;6.90;99.90;;;;;;5030291;28;20167;-57
2023/03/03 09:58:10;;;;;;;7.67;1.83;;;6.90;99.90;;;;;;5012154;28;20218;-57
2023/03/03 10:00:58;;;;;;;2.87;1.80;;;6.80;99.90;;;;;;5025857;28;20261;-57
2023/03/03 10:03:38;;;;;;;7.10;2.00;;;7.00;99.90;;;;;;5031440;28;20247;-57
2023/03/03 10:06:26;;;;;;;4.87;1.70;;;7.00;99.90;;;;;;5031490;28;20178;-57
2023/03/03 10:09:30;;;;;;;4.70;1.77;;;7.20;99.90;;;;;;5031999;28;20213;-57
2023/03/03 10:12:16;;;;;;;4.17;1.67;;;7.10;99.90;;;;;;5014267;28;20196;-57
2023/03/03 10:15:32;;;;;;;5.67;1.80;;;7.20;99.90;;;;;;5027653;28;20224;-57
2023/03/03 10:18:04;;;;;;;7.53;1.77;;;7.70;99.90;;;;;;5015164;28;20257;-57
2023/03/03 10:20:51;;;;;;;4.93;1.90;;;7.30;99.90;;;;;;5031875;28;20176;-55
2023/03/03 10:23:54;;;;;;;6.43;1.63;;;7.20;99.90;;;;;;5011935;28;20682;-57
2023/03/03 10:26:35;;;;;;;7.00;1.67;;;7.20;99.90;;;;;;4980150;28;20181;-57
2023/03/03 10:29:16;;;;;;;3.87;1.50;;;7.10;99.90;;;;;;5028935;28;20242;-57
2023/03/03 10:31:58;;;;;;;4.87;1.53;;;7.20;99.90;;;;;;5031831;28;20173;-57
2023/03/03 10:34:58;;;;;;;2.53;1.53;;;7.20;99.90;;;;;;5031422;28;20181;-57
2023/03/03 10:37:28;;;;;;;5.90;1.50;;;7.30;99.90;;;;;;5031709;28;20178;-57
2023/03/03 10:40:16;;;;;;;3.80;1.50;;;7.50;99.90;;;;;;5014279;28;20602;-57
2023/03/03 10:42:50;;;;;;;5.53;1.80;;;7.50;99.90;;;;;;5029025;28;20178;-56
2023/03/03 10:45:31;;;;;;;7.33;2.10;;;7.30;99.90;;;;;;5031882;28;20211;-56
2023/03/03 10:48:24;;;;;;;3.80;1.80;;;7.30;99.90;;;;;;5030126;28;20209;-56
2023/03/03 10:51:04;;;;;;;9.17;1.77;;;7.30;99.90;;;;;;5030192;28;20201;-56
2023/03/03 10:53:44;;;;;;;3.53;2.60;;;7.30;99.90;;;;;;5030163;28;20166;-56
2023/03/03 10:56:54;;;;;;;3.10;1.70;;;7.40;99.90;;;;;;5029639;28;20178;-56
2023/03/03 10:59:52;;;;;;;2.63;1.50;;;7.30;99.90;;;;;;4968845;28;20195;-57
2023/03/03 11:02:21;;;;;;;2.27;1.37;;;7.30;99.90;;;;;;5006454;28;20308;-58
2023/03/03 11:04:52;;;;;;;3.20;1.43;;;7.30;99.90;;;;;;5027264;28;20174;-58
2023/03/03 11:07:27;;;;;;;2.80;1.57;;;7.40;99.90;;;;;;5024572;28;20251;-58
2023/03/03 11:10:15;;;;;;;4.57;1.60;;;7.50;99.90;;;;;;5031731;28;20623;-58
2023/03/03 11:13:09;;;;;;;3.57;1.23;;;7.70;99.90;;;;;;5029053;28;20184;-56
2023/03/03 11:15:40;;;;;;;5.20;1.40;;;7.60;99.90;;;;;;5027291;28;20616;-58
2023/03/03 11:18:11;;;;;;;1.83;1.30;;;7.80;99.90;;;;;;5031369;28;20170;-58
2023/03/03 11:20:58;;;;;;;5.30;1.80;;;7.80;99.90;;;;;;5030673;28;20649;-58
2023/03/03 11:23:53;;;;;;;6.67;1.67;;;7.90;99.90;;;;;;5011726;28;20228;-56
2023/03/03 11:26:27;;;;;;;3.63;1.63;;;7.80;99.90;;;;;;5022382;28;20178;-56
2023/03/03 11:29:04;;;;;;;4.43;1.40;;;7.80;99.90;;;;;;5031218;28;20244;-56
2023/03/03 11:31:47;;;;;;;2.83;1.30;;;7.50;99.90;;;;;;5031096;28;20192;-55
2023/03/03 11:34:59;;;;;;;4.33;1.30;;;7.40;99.90;;;;;;5030976;28;20165;-54
2023/03/03 11:38:02;;;;;;;3.03;1.43;;;7.60;99.90;;;;;;5030581;28;20193;-55
2023/03/03 11:40:40;;;;;;;4.17;1.80;;;7.70;99.90;;;;;;5029666;28;20690;-55
2023/03/03 11:43:11;;;;;;;3.50;1.60;;;7.80;99.90;;;;;;5030421;28;20169;-54
2023/03/03 11:45:50;;;;;;;5.73;1.47;;;7.80;99.90;;;;;;5031073;28;20174;-55
2023/03/03 11:48:37;;;;;;;3.63;1.60;;;7.80;99.90;;;;;;5031076;28;20601;-55
2023/03/03 11:51:22;;;;;;;4.77;1.70;;;7.50;99.90;;;;;;5030792;28;20618;-56
2023/03/03 11:54:00;;;;;;;4.67;1.40;;;7.60;99.90;;;;;;5030603;28;20257;-55
2023/03/03 11:56:34;;;;;;;5.83;1.33;;;7.70;99.90;;;;;;5030530;28;20221;-55
2023/03/03 11:59:08;;;;;;;4.07;1.40;;;7.90;99.90;;;;;;5030592;28;20166;-55
2023/03/03 12:01:53;;;;;;;2.10;1.17;;;7.90;99.90;;;;;;5030187;28;20169;-54
2023/03/03 12:04:32;;;;;;;7.20;1.10;;;7.90;99.90;;;;;;5030438;28;20258;-56
2023/03/03 12:07:24;;;;;;;7.43;1.30;;;7.80;99.90;;;;;;5030508;28;20201;-55
2023/03/03 12:10:07;;;;;;;6.57;1.40;;;8.00;99.90;;;;;;5023713;28;20228;-55
2023/03/03 12:12:43;;;;;;;5.20;1.33;;;8.10;99.90;;;;;;5030472;28;20605;-55
2023/03/03 12:15:27;;;;;;;6.07;1.50;;;8.30;99.90;;;;;;5030473;28;20197;-55
2023/03/03 12:18:27;;;;;;;4.43;1.33;;;9.50;99.90;;;;;;5030241;28;20177;-55
2023/03/03 12:21:31;;;;;;;2.63;1.43;;;8.30;99.90;;;;;;5030341;28;20181;-55
2023/03/03 12:24:18;;;;;;;2.83;1.20;;;8.40;99.90;;;;;;5029809;28;20201;-55
2023/03/03 12:26:46;;;;;;;2.57;1.20;;;8.30;99.90;;;;;;5030032;28;20197;-55
2023/03/03 12:29:21;;;;;;;3.50;1.53;;;8.30;99.90;;;;;;5011333;28;20272;-56
2023/03/03 12:31:52;;;;;;;1.80;1.10;;;8.00;99.90;;;;;;5030175;28;20260;-55
2023/03/03 12:34:28;;;;;;;3.43;1.30;;;8.20;99.90;;;;;;5012356;28;20178;-55
2023/03/03 12:37:09;;;;;;;4.80;1.70;;;8.20;99.90;;;;;;5030143;28;20161;-55
2023/03/03 12:39:54;;;;;;;4.53;1.70;;;8.10;99.90;;;;;;5030252;28;20173;-55
2023/03/03 12:42:48;;;;;;;3.30;1.60;;;8.00;99.90;;;;;;5030198;28;20165;-55
2023/03/03 12:45:54;;;;;;;3.20;1.70;;;8.00;99.90;;;;;;5030127;28;20546;-55
2023/03/03 12:48:41;;;;;;;3.63;1.73;;;8.00;99.90;;;;;;5030207;28;20213;-55
2023/03/03 12:51:13;;;;;;;2.40;1.60;;;8.00;99.90;;;;;;5012324;28;20170;-55
2023/03/03 12:54:03;;;;;;;2.33;1.37;;;8.10;99.90;;;;;;5029662;28;20552;-55
2023/03/03 12:56:43;;;;;;;9.90;1.43;;;8.30;99.90;;;;;;5020890;28;20271;-55
2023/03/03 12:59:19;;;;;;;3.17;1.60;;;8.20;99.90;;;;;;5030206;28;20224;-57
2023/03/03 13:01:54;;;;;;;2.92;1.40;;;8.20;99.90;;;;;;5029194;28;20415;-56
2023/03/03 13:04:25;;;;;;;1.53;1.20;;;8.10;99.90;;;;;;5029536;28;20173;-56
2023/03/03 13:07:02;;;;;;;3.93;1.00;;;8.00;99.90;;;;;;5030182;28;20640;-55
2023/03/03 13:09:35;;;;;;;4.50;1.10;;;8.10;99.90;;;;;;5029573;28;20177;-56
2023/03/03 13:12:27;;;;;;;3.97;1.60;;;8.20;99.90;;;;;;5030747;28;20170;-57
2023/03/03 13:15:11;;;;;;;1.93;0.90;;;8.20;99.90;;;;;;5031323;28;20203;-57
2023/03/03 13:17:55;;;;;;;1.30;0.70;;;8.10;99.90;;;;;;5031037;28;20655;-57
2023/03/03 13:20:43;;;;;;;3.67;1.60;;;8.10;99.90;;;;;;5033581;28;20197;-57
2023/03/03 13:23:31;;;;;;;2.57;1.50;;;8.00;99.90;;;;;;5033780;28;20209;-57
2023/03/03 13:26:02;;;;;;;4.33;2.17;;;8.00;99.90;;;;;;5015896;28;20182;-57
2023/03/03 13:28:42;;;;;;;4.30;2.07;;;8.00;99.90;;;;;;5033541;28;20225;-57